Time;durP1;ratioP1;P1;durP2;ratioP2;P2;SDS_P1;SDS_P2;PMS_P1;PMS_P2;Temp;Humidity;BMP_temperature;BMP_pressure;BME280_temperature;BME280_humidity;BME280_pressure;Samples;Min_cycle;Max_cycle;Signal;HPM_P1;HPM_P2
2022/02/04 00:07:52;;;;;;;8.13;7.05;;;7.00;99.90;;;;;;5074700;28;20265;-82
2022/02/04 00:21:27;;;;;;;10.38;7.43;;;6.90;99.90;;;;;;5074043;28;20204;-83
2022/02/04 00:23:53;;;;;;;10.13;7.93;;;7.00;99.90;;;;;;5073051;28;20194;-82
2022/02/04 00:26:24;;;;;;;10.90;7.60;;;7.10;99.90;;;;;;5072533;28;20177;-82
2022/02/04 00:33:47;;;;;;;8.38;6.50;;;7.10;99.90;;;;;;5073771;28;20197;-84
2022/02/04 00:36:22;;;;;;;9.43;7.00;;;7.20;99.90;;;;;;5073614;28;20169;-83
2022/02/04 00:38:52;;;;;;;8.50;6.93;;;7.10;99.90;;;;;;5073786;28;20169;-82
2022/02/04 00:41:22;;;;;;;9.35;7.72;;;7.10;99.90;;;;;;5073266;28;20176;-83
2022/02/04 00:43:50;;;;;;;8.85;7.53;;;7.10;99.90;;;;;;5073555;28;20169;-82
2022/02/04 00:46:23;;;;;;;9.35;8.05;;;7.10;99.90;;;;;;5072356;28;20185;-81
2022/02/04 00:51:29;;;;;;;8.13;6.77;;;7.30;99.90;;;;;;5073271;28;20634;-83
2022/02/04 00:54:14;;;;;;;10.30;7.40;;;7.20;99.90;;;;;;5073490;28;20257;-85
2022/02/04 00:57:07;;;;;;;8.75;6.68;;;7.20;99.90;;;;;;5072421;28;20164;-82
2022/02/04 01:26:47;;;;;;;8.80;5.85;;;7.20;99.90;;;;;;5053212;28;20174;-83
2022/02/04 01:29:13;;;;;;;7.23;5.60;;;7.20;99.90;;;;;;5053076;28;20198;-82
2022/02/04 01:31:40;;;;;;;6.38;5.13;;;7.30;99.90;;;;;;5052673;28;20191;-83
2022/02/04 01:34:05;;;;;;;6.35;5.30;;;7.30;99.90;;;;;;5052045;28;20212;-82
2022/02/04 01:36:31;;;;;;;5.97;5.37;;;7.20;99.90;;;;;;5053059;28;20231;-82
2022/02/04 01:38:56;;;;;;;6.23;5.63;;;7.20;99.90;;;;;;5051666;28;20176;-82
2022/02/04 01:41:22;;;;;;;6.67;5.23;;;7.20;99.90;;;;;;5052619;28;20207;-82
2022/02/04 01:43:49;;;;;;;6.17;4.80;;;7.30;99.90;;;;;;5053041;28;20178;-83
2022/02/04 01:46:15;;;;;;;5.55;4.90;;;7.20;99.90;;;;;;5052984;28;20227;-83
2022/02/04 01:48:42;;;;;;;4.90;4.30;;;7.30;99.90;;;;;;5052810;28;20182;-82
2022/02/04 01:51:11;;;;;;;4.93;3.85;;;7.30;99.90;;;;;;5052442;28;20174;-83
2022/02/04 01:53:37;;;;;;;5.65;4.65;;;7.30;99.90;;;;;;5052811;28;20207;-84
2022/02/04 01:56:08;;;;;;;5.75;4.57;;;7.30;99.90;;;;;;5051810;28;20174;-83
2022/02/04 01:58:35;;;;;;;5.28;4.53;;;7.30;99.90;;;;;;5052767;28;20169;-84
2022/02/04 02:01:01;;;;;;;6.47;4.50;;;7.20;99.90;;;;;;5052391;28;20186;-83
2022/02/04 02:03:27;;;;;;;6.05;4.70;;;7.30;99.90;;;;;;5052583;28;20218;-82
2022/02/04 02:05:56;;;;;;;7.40;4.63;;;7.20;99.90;;;;;;5052464;28;20213;-82
2022/02/04 02:08:22;;;;;;;5.78;4.82;;;7.30;99.90;;;;;;5055353;28;20708;-82
2022/02/04 02:10:49;;;;;;;5.73;4.17;;;7.20;99.90;;;;;;5055090;28;20188;-84
2022/02/04 02:13:28;;;;;;;6.63;4.38;;;7.30;99.90;;;;;;5056641;28;20335;-82
2022/02/04 02:43:03;;;;;;;6.18;5.55;;;7.40;99.90;;;;;;5055750;28;20191;-82
2022/02/04 02:51:03;;;;;;;5.07;4.50;;;7.30;99.90;;;;;;5054672;28;20579;-83
2022/02/04 02:59:02;;;;;;;6.53;5.70;;;7.30;99.90;;;;;;5056018;28;20198;-81
2022/02/04 03:01:28;;;;;;;7.18;4.90;;;7.20;99.90;;;;;;5055364;28;20170;-83
2022/02/04 03:03:57;;;;;;;7.13;4.60;;;7.30;99.90;;;;;;5055692;28;20178;-82
2022/02/04 03:06:23;;;;;;;7.53;5.03;;;7.30;99.90;;;;;;5055545;28;20176;-82
2022/02/04 03:08:49;;;;;;;6.60;4.88;;;7.40;99.90;;;;;;5055622;28;20583;-83
2022/02/04 03:11:15;;;;;;;6.70;5.47;;;7.40;99.90;;;;;;5054890;28;20181;-81
2022/02/04 03:13:44;;;;;;;5.73;4.20;;;7.40;99.90;;;;;;5055214;28;20284;-83
2022/02/04 03:16:13;;;;;;;5.88;4.55;;;7.50;99.90;;;;;;5055357;28;20170;-83
2022/02/04 03:18:42;;;;;;;6.13;5.28;;;7.30;99.90;;;;;;5054048;28;20543;-81
2022/02/04 03:21:15;;;;;;;6.65;4.65;;;7.40;99.90;;;;;;5053883;28;20594;-83
2022/02/04 03:23:45;;;;;;;7.70;5.95;;;7.40;99.90;;;;;;5055200;28;20627;-82
2022/02/04 03:26:19;;;;;;;6.05;4.50;;;7.40;99.90;;;;;;5055188;28;20194;-82
2022/02/04 03:28:44;;;;;;;6.25;4.50;;;7.40;99.90;;;;;;5055069;28;20546;-82
2022/02/04 03:31:10;;;;;;;6.00;4.47;;;7.40;99.90;;;;;;5053586;28;20249;-83
2022/02/04 03:33:37;;;;;;;7.13;5.00;;;7.40;99.90;;;;;;5054781;28;20680;-83
2022/02/04 03:36:03;;;;;;;9.35;5.38;;;7.40;99.90;;;;;;5054906;28;20218;-82
2022/02/04 03:38:28;;;;;;;7.38;5.35;;;7.40;99.90;;;;;;5054848;28;20174;-81
2022/02/04 03:40:54;;;;;;;5.63;5.10;;;7.50;99.90;;;;;;5054647;28;20181;-83
2022/02/04 03:43:19;;;;;;;6.13;5.10;;;7.50;99.90;;;;;;5053549;28;20252;-81
2022/02/04 03:45:45;;;;;;;6.80;5.67;;;7.40;99.90;;;;;;5053446;28;20253;-83
2022/02/04 03:48:11;;;;;;;4.80;4.07;;;7.30;99.90;;;;;;5054713;28;20175;-81
2022/02/04 03:50:36;;;;;;;6.97;4.63;;;7.20;99.90;;;;;;5054538;28;20174;-83
2022/02/04 03:53:03;;;;;;;4.60;4.17;;;7.30;99.90;;;;;;5053134;28;20259;-82
2022/02/04 03:55:29;;;;;;;7.18;5.15;;;7.30;99.90;;;;;;5054611;28;20220;-82
2022/02/04 03:57:54;;;;;;;6.05;4.57;;;7.30;99.90;;;;;;5054827;28;20166;-82
2022/02/04 04:00:20;;;;;;;6.10;4.57;;;7.30;99.90;;;;;;5054490;28;20206;-83
2022/02/04 04:02:47;;;;;;;4.73;4.23;;;7.30;99.90;;;;;;5054163;28;20195;-82
2022/02/04 04:05:14;;;;;;;6.30;4.80;;;7.30;99.90;;;;;;5053308;28;20647;-81
2022/02/04 04:07:46;;;;;;;5.05;4.55;;;7.30;99.90;;;;;;5054661;28;20174;-83
2022/02/04 04:10:17;;;;;;;6.00;4.55;;;7.20;99.90;;;;;;5054472;28;20538;-82
2022/02/04 04:12:43;;;;;;;5.82;4.65;;;7.20;99.90;;;;;;5053889;28;20260;-81
2022/02/04 04:15:10;;;;;;;5.27;4.57;;;7.20;99.90;;;;;;5053139;28;20599;-84
2022/02/04 04:17:43;;;;;;;5.25;3.97;;;7.30;99.90;;;;;;5054248;28;20647;-83
2022/02/04 04:20:20;;;;;;;4.40;3.95;;;7.40;99.90;;;;;;5053970;28;20195;-82
2022/02/04 04:22:45;;;;;;;6.55;4.50;;;7.40;99.90;;;;;;5053736;28;20725;-83
2022/02/04 04:25:13;;;;;;;4.93;3.50;;;7.40;99.90;;;;;;5054016;28;20310;-83
2022/02/04 04:27:40;;;;;;;6.07;4.07;;;7.40;99.90;;;;;;5053783;28;20182;-84
2022/02/04 04:30:07;;;;;;;4.78;3.25;;;7.50;99.90;;;;;;5052114;28;20635;-81
2022/02/04 04:32:33;;;;;;;6.68;4.65;;;7.40;99.90;;;;;;5052430;28;20567;-84
2022/02/04 04:34:59;;;;;;;5.10;3.97;;;7.40;99.90;;;;;;5053752;28;20206;-83
2022/02/04 04:37:25;;;;;;;7.00;4.53;;;7.40;99.90;;;;;;5053777;28;20177;-81
2022/02/04 04:42:30;;;;;;;4.78;3.85;;;7.40;99.90;;;;;;5053403;28;20449;-82
2022/02/04 05:28:42;;;;;;;3.83;3.35;;;7.50;99.90;;;;;;5044042;28;20297;-82
2022/02/04 05:31:07;;;;;;;3.25;2.92;;;7.50;99.90;;;;;;5052830;28;20641;-83
2022/02/04 05:33:33;;;;;;;4.90;3.47;;;7.50;99.90;;;;;;5052905;28;20212;-83
2022/02/04 05:36:00;;;;;;;4.00;3.57;;;7.50;99.90;;;;;;5053178;28;20182;-82
2022/02/04 05:38:27;;;;;;;4.43;3.50;;;7.50;99.90;;;;;;5035290;28;20224;-82
2022/02/04 05:40:53;;;;;;;5.03;3.63;;;7.50;99.90;;;;;;5053674;28;20170;-84
2022/02/04 05:43:26;;;;;;;4.10;3.13;;;7.60;99.90;;;;;;5055877;28;20290;-83
2022/02/04 05:46:13;;;;;;;3.42;2.35;;;7.50;99.90;;;;;;5056149;28;20169;-84
2022/02/04 05:48:44;;;;;;;2.50;2.30;;;7.50;99.90;;;;;;5042032;28;20190;-82
2022/02/04 05:53:50;;;;;;;2.50;1.83;;;7.50;99.90;;;;;;5057080;28;20316;-82
2022/02/04 05:56:28;;;;;;;2.00;1.70;;;7.50;99.90;;;;;;5057055;28;20174;-84
2022/02/04 05:59:09;;;;;;;3.67;2.25;;;7.50;99.90;;;;;;5056682;28;20162;-83
2022/02/04 06:22:50;;;;;;;2.90;2.30;;;7.40;99.90;;;;;;5055111;28;20685;-84
2022/02/04 06:25:17;;;;;;;6.28;2.75;;;7.40;99.90;;;;;;5056412;28;20170;-82
2022/02/04 06:27:43;;;;;;;4.38;3.08;;;7.20;99.90;;;;;;5054854;28;20232;-82
2022/02/04 06:30:11;;;;;;;5.03;3.43;;;7.10;99.90;;;;;;5056391;28;20607;-83
2022/02/04 06:32:36;;;;;;;4.25;3.00;;;7.10;99.90;;;;;;5055919;28;20596;-84
2022/02/04 06:35:05;;;;;;;3.53;3.23;;;7.10;99.90;;;;;;5056105;28;20294;-82
2022/02/04 06:37:31;;;;;;;5.05;3.53;;;7.10;99.90;;;;;;5056216;28;20178;-82
2022/02/04 06:39:56;;;;;;;3.33;3.03;;;7.10;99.90;;;;;;5054925;28;20182;-82
2022/02/04 06:42:27;;;;;;;5.80;4.33;;;7.20;99.90;;;;;;5055565;28;20460;-83
2022/02/04 06:44:53;;;;;;;4.50;3.40;;;7.10;99.90;;;;;;5055872;28;20178;-83
2022/02/04 06:47:20;;;;;;;5.38;3.80;;;7.00;99.90;;;;;;5054329;28;20220;-81
2022/02/04 06:49:46;;;;;;;5.25;3.55;;;7.10;99.90;;;;;;5056065;28;20174;-83
2022/02/04 06:52:13;;;;;;;4.93;3.72;;;7.20;99.90;;;;;;5055210;28;20245;-82
2022/02/04 06:54:39;;;;;;;4.40;3.85;;;7.20;99.90;;;;;;5054795;28;20217;-83
2022/02/04 06:57:05;;;;;;;4.20;3.30;;;7.20;99.90;;;;;;5055931;28;20627;-82
2022/02/04 06:59:31;;;;;;;5.72;4.25;;;7.30;99.90;;;;;;5055731;28;20773;-82
2022/02/04 07:01:57;;;;;;;5.63;4.63;;;7.30;99.90;;;;;;5055475;28;20198;-82
2022/02/04 07:04:24;;;;;;;6.80;5.10;;;7.40;99.90;;;;;;5055998;28;20265;-83
2022/02/04 07:06:56;;;;;;;5.90;4.55;;;7.40;99.90;;;;;;5056201;28;20632;-83
2022/02/04 07:09:28;;;;;;;6.30;4.70;;;7.40;99.90;;;;;;5054268;28;20190;-82
2022/02/04 07:12:16;;;;;;;5.47;4.78;;;7.40;99.90;;;;;;5055442;28;20194;-83
2022/02/04 07:17:16;;;;;;;5.70;4.10;;;7.40;99.90;;;;;;5055841;28;20627;-82
2022/02/04 07:19:48;;;;;;;6.00;4.32;;;7.40;99.90;;;;;;5054419;28;20177;-82
2022/02/04 07:22:16;;;;;;;5.10;3.95;;;7.30;99.90;;;;;;5053835;28;20199;-83
2022/02/04 07:24:42;;;;;;;4.00;3.60;;;7.30;99.90;;;;;;5055381;28;20678;-81
2022/02/04 07:27:07;;;;;;;4.80;3.30;;;7.40;99.90;;;;;;5055439;28;20276;-83
2022/02/04 07:29:34;;;;;;;5.27;4.13;;;7.30;99.90;;;;;;5055218;28;20440;-82
2022/02/04 07:32:05;;;;;;;5.30;4.63;;;7.30;99.90;;;;;;5054939;28;20202;-83
2022/02/04 07:42:31;;;;;;;4.22;3.25;;;7.40;99.90;;;;;;5054119;28;20260;-82
2022/02/04 07:44:56;;;;;;;4.77;3.23;;;7.40;99.90;;;;;;5055041;28;20186;-82
2022/02/04 07:47:22;;;;;;;5.17;3.40;;;7.40;99.90;;;;;;5054795;28;20188;-82
2022/02/04 07:49:49;;;;;;;3.43;2.83;;;7.40;99.90;;;;;;5054778;28;20724;-82
2022/02/04 07:52:16;;;;;;;4.50;3.70;;;7.40;99.90;;;;;;5053362;28;20205;-83
2022/02/04 07:54:41;;;;;;;3.45;2.97;;;7.40;99.90;;;;;;5054723;28;20206;-82
2022/02/04 07:57:07;;;;;;;4.33;3.63;;;7.40;99.90;;;;;;5053370;28;20180;-83
2022/02/04 07:59:33;;;;;;;5.17;3.60;;;7.40;99.90;;;;;;5053402;28;20348;-82
2022/02/04 08:01:58;;;;;;;4.30;3.17;;;7.50;99.90;;;;;;5054151;28;20697;-82
2022/02/04 08:04:28;;;;;;;8.77;4.40;;;7.60;99.90;;;;;;5053727;28;20235;-82
2022/02/04 08:07:04;;;;;;;5.72;3.90;;;7.60;99.90;;;;;;5054776;28;20251;-82
2022/02/04 08:14:52;;;;;;;5.63;3.90;;;7.70;99.90;;;;;;5056886;28;20217;-81
2022/02/04 08:20:14;;;;;;;4.25;2.88;;;7.60;99.90;;;;;;5054527;28;20170;-82
2022/02/04 08:25:37;;;;;;;3.60;3.00;;;7.60;99.90;;;;;;5054351;28;20184;-81
2022/02/04 08:38:57;;;;;;;3.63;2.72;;;7.70;99.90;;;;;;5053902;28;20652;-82
2022/02/04 08:47:11;;;;;;;4.53;2.10;;;7.90;99.90;;;;;;5054151;28;20581;-82
2022/02/04 08:52:37;;;;;;;2.40;1.95;;;8.00;99.90;;;;;;5053504;28;20201;-81
2022/02/04 08:55:11;;;;;;;1.95;1.50;;;8.10;99.90;;;;;;5053570;28;20206;-83
2022/02/04 09:00:29;;;;;;;2.60;1.70;;;8.20;99.90;;;;;;5053464;28;20657;-82
2022/02/04 09:03:00;;;;;;;2.15;1.80;;;8.20;99.90;;;;;;5052993;28;20249;-82
2022/02/04 09:05:34;;;;;;;3.38;2.42;;;8.30;99.90;;;;;;5052383;28;20181;-82
2022/02/04 09:10:47;;;;;;;3.53;1.88;;;8.40;99.90;;;;;;5053106;28;20185;-82
2022/02/04 09:18:47;;;;;;;1.30;1.20;;;8.60;99.90;;;;;;5053342;28;20412;-82
2022/02/04 09:21:26;;;;;;;1.75;1.55;;;8.70;99.90;;;;;;5052893;28;20178;-82
2022/02/04 09:23:51;;;;;;;1.90;1.27;;;8.90;99.90;;;;;;5052398;28;20626;-82
2022/02/04 09:26:17;;;;;;;3.03;1.70;;;8.90;99.90;;;;;;5051669;28;20209;-82
2022/02/04 09:28:43;;;;;;;1.50;1.40;;;9.00;99.90;;;;;;5051960;28;20193;-82
2022/02/04 09:31:08;;;;;;;1.50;1.30;;;9.10;99.90;;;;;;5052877;28;20439;-81
2022/02/04 09:33:34;;;;;;;2.00;0.90;;;9.10;99.90;;;;;;5052726;28;20213;-81
2022/02/04 09:35:59;;;;;;;1.60;1.20;;;9.10;99.90;;;;;;5053149;28;20192;-79
2022/02/04 09:38:26;;;;;;;2.53;1.00;;;9.20;99.90;;;;;;5035100;28;20182;-77
2022/02/04 09:40:52;;;;;;;1.00;0.70;;;9.30;99.90;;;;;;5052843;28;20170;-78
2022/02/04 09:43:18;;;;;;;2.53;1.20;;;9.40;99.90;;;;;;5052837;28;20703;-78
2022/02/04 09:45:43;;;;;;;1.00;0.70;;;9.40;99.90;;;;;;5052995;28;20175;-78
2022/02/04 09:48:13;;;;;;;1.73;0.73;;;9.30;99.90;;;;;;5053093;28;20182;-81
2022/02/04 09:50:45;;;;;;;2.20;1.20;;;9.40;99.90;;;;;;5051597;28;20191;-80
2022/02/04 10:10:12;;;;;;;1.40;0.90;;;9.50;99.90;;;;;;5053028;28;20198;-81
2022/02/04 10:16:14;;;;;;;1.13;0.90;;;9.70;99.90;;;;;;5028918;28;20235;-82
2022/02/04 10:18:51;;;;;;;1.00;0.70;;;9.70;99.90;;;;;;5047299;28;20188;-82
2022/02/04 10:21:17;;;;;;;0.95;0.70;;;9.80;99.90;;;;;;5050350;28;20177;-82
2022/02/04 10:23:48;;;;;;;0.80;0.70;;;9.80;99.90;;;;;;5051918;28;20261;-82
2022/02/04 10:26:15;;;;;;;1.30;0.80;;;9.80;99.90;;;;;;5052313;28;20185;-81
2022/02/04 10:28:42;;;;;;;0.90;0.60;;;9.80;99.90;;;;;;5056054;28;20220;-81
2022/02/04 10:31:26;;;;;;;1.10;0.63;;;9.80;99.90;;;;;;5056204;28;20657;-81
2022/02/04 10:34:12;;;;;;;1.00;0.70;;;9.80;99.90;;;;;;5057183;28;20554;-81
2022/02/04 10:37:05;;;;;;;1.00;0.70;;;9.80;99.90;;;;;;5056892;28;20170;-82
2022/02/04 10:45:01;;;;;;;1.52;0.60;;;10.20;99.90;;;;;;5056760;28;20232;-82
2022/02/04 10:56:13;;;;;;;1.05;0.60;;;9.90;99.90;;;;;;5056280;28;20542;-80
2022/02/04 10:59:09;;;;;;;0.80;0.55;;;9.60;99.90;;;;;;5055723;28;20237;-82
2022/02/04 11:04:16;;;;;;;0.80;0.70;;;9.60;99.90;;;;;;5056451;28;20718;-81
2022/02/04 11:09:52;;;;;;;1.70;0.75;;;9.60;99.90;;;;;;5055699;28;20196;-81
2022/02/04 11:32:26;;;;;;;1.35;0.80;;;8.90;99.90;;;;;;5055246;28;20311;-81
2022/02/04 11:52:25;;;;;;;1.20;0.90;;;8.90;99.90;;;;;;5054743;28;20263;-82
2022/02/04 11:54:54;;;;;;;1.10;0.80;;;8.90;99.90;;;;;;5054555;28;20236;-81
2022/02/04 11:57:22;;;;;;;1.10;0.73;;;8.90;99.90;;;;;;5054680;28;20178;-82
2022/02/04 11:59:54;;;;;;;0.95;0.63;;;8.90;99.90;;;;;;5054695;28;20179;-83
2022/02/04 12:02:30;;;;;;;0.90;0.70;;;9.10;99.90;;;;;;5054515;28;20244;-82
2022/02/04 12:05:07;;;;;;;0.93;0.75;;;9.10;99.90;;;;;;5054469;28;20223;-82
2022/02/04 12:07:36;;;;;;;0.90;0.80;;;9.00;99.90;;;;;;5053258;28;20666;-82
2022/02/04 12:10:03;;;;;;;0.90;0.80;;;9.00;99.90;;;;;;5054498;28;20178;-82
2022/02/04 12:12:54;;;;;;;1.08;0.80;;;9.10;99.90;;;;;;5052765;28;20209;-82
2022/02/04 12:15:32;;;;;;;1.00;0.80;;;9.10;99.90;;;;;;5052992;28;20198;-83
2022/02/04 12:17:59;;;;;;;1.05;0.90;;;9.20;99.90;;;;;;5053636;28;20178;-82
2022/02/04 12:20:51;;;;;;;1.67;1.08;;;9.20;99.90;;;;;;5054391;28;20174;-81
2022/02/04 12:23:29;;;;;;;1.15;0.70;;;9.10;99.90;;;;;;5049644;28;20229;-81
2022/02/04 12:25:55;;;;;;;1.65;0.90;;;9.10;99.90;;;;;;5053943;28;20216;-83
2022/02/04 12:28:51;;;;;;;2.03;1.15;;;9.10;99.90;;;;;;5054101;28;20498;-83
2022/02/04 12:31:30;;;;;;;5.53;1.30;;;9.10;99.90;;;;;;5053753;28;20183;-83
2022/02/04 12:34:05;;;;;;;1.23;0.82;;;9.20;99.90;;;;;;5052713;28;20674;-82
2022/02/04 12:36:35;;;;;;;5.00;1.30;;;9.20;99.90;;;;;;5054057;28;20639;-82
2022/02/04 12:39:06;;;;;;;1.70;1.10;;;9.20;99.90;;;;;;5053851;28;20171;-82
2022/02/04 12:41:34;;;;;;;1.80;1.00;;;9.20;99.90;;;;;;5053490;28;20225;-83
2022/02/04 12:44:06;;;;;;;2.28;1.30;;;9.10;99.90;;;;;;5053781;28;20262;-83
2022/02/04 12:46:33;;;;;;;1.65;1.30;;;9.10;99.90;;;;;;5053489;28;20172;-82
2022/02/04 12:49:10;;;;;;;3.42;1.50;;;9.00;99.90;;;;;;5053458;28;20197;-83
2022/02/04 12:54:44;;;;;;;1.88;1.42;;;9.10;99.90;;;;;;5053234;28;20202;-83
2022/02/04 12:59:56;;;;;;;1.52;1.15;;;9.10;99.90;;;;;;5053344;28;20251;-82
2022/02/04 13:07:46;;;;;;;4.88;1.25;;;9.10;99.90;;;;;;5053237;28;20248;-82
2022/02/04 13:10:26;;;;;;;1.95;1.00;;;9.10;99.90;;;;;;5053194;28;20177;-83
2022/02/04 13:13:06;;;;;;;1.17;0.98;;;9.10;99.90;;;;;;5052870;28;20186;-82
2022/02/04 13:15:34;;;;;;;1.25;0.90;;;9.10;99.90;;;;;;5053013;28;20205;-82
2022/02/04 13:18:11;;;;;;;1.13;0.80;;;9.20;99.90;;;;;;5053010;28;20528;-83
2022/02/04 13:20:39;;;;;;;1.23;0.80;;;9.20;99.90;;;;;;5053348;28;20263;-84
2022/02/04 13:23:10;;;;;;;1.08;0.93;;;9.20;99.90;;;;;;5052939;28;20615;-84
2022/02/04 13:25:41;;;;;;;3.70;0.75;;;9.20;99.90;;;;;;5053301;28;20170;-82
2022/02/04 13:28:19;;;;;;;1.65;1.10;;;9.20;99.90;;;;;;5051663;28;20190;-83
2022/02/04 13:31:00;;;;;;;1.15;1.08;;;9.30;99.90;;;;;;5052784;28;20170;-83
2022/02/04 13:33:29;;;;;;;1.10;0.98;;;9.20;99.90;;;;;;5052892;28;20200;-83
2022/02/04 13:35:59;;;;;;;2.65;1.33;;;9.30;99.90;;;;;;5053029;28;20589;-83
2022/02/04 13:38:34;;;;;;;2.35;1.35;;;9.10;99.90;;;;;;5053174;28;20170;-83
2022/02/04 13:41:13;;;;;;;3.08;1.70;;;9.20;99.90;;;;;;5052739;28;20166;-85
2022/02/04 13:46:41;;;;;;;6.68;1.70;;;9.10;99.90;;;;;;5028996;28;20674;-83
2022/02/04 13:49:29;;;;;;;2.30;1.60;;;9.30;99.90;;;;;;5051713;28;20661;-83
2022/02/04 13:52:20;;;;;;;2.65;1.40;;;9.40;99.90;;;;;;5052432;28;20189;-83
2022/02/04 13:54:58;;;;;;;2.75;1.80;;;9.40;99.90;;;;;;5052532;28;20204;-82
2022/02/04 13:57:42;;;;;;;2.75;1.67;;;9.40;99.90;;;;;;5052765;28;20169;-82
2022/02/04 14:02:48;;;;;;;1.98;1.58;;;9.40;99.90;;;;;;5054481;28;20243;-83
2022/02/04 14:05:32;;;;;;;2.90;1.70;;;9.40;99.90;;;;;;5056645;28;20192;-82
2022/02/04 14:08:30;;;;;;;2.50;1.10;;;9.40;99.90;;;;;;5056618;28;20162;-84
2022/02/04 14:10:59;;;;;;;2.78;1.17;;;9.30;99.90;;;;;;5055937;28;20195;-83
2022/02/04 14:13:27;;;;;;;2.05;1.30;;;9.40;99.90;;;;;;5039030;28;20209;-82
2022/02/04 14:15:57;;;;;;;3.28;1.60;;;9.60;99.90;;;;;;5056523;28;20515;-83
2022/02/04 14:18:23;;;;;;;4.78;1.63;;;9.60;99.90;;;;;;5056369;28;20205;-84
2022/02/04 14:20:49;;;;;;;2.55;1.30;;;9.60;99.90;;;;;;5056180;28;20192;-83
2022/02/04 14:23:15;;;;;;;2.95;1.30;;;9.70;99.90;;;;;;5056186;28;20196;-83
2022/02/04 14:26:03;;;;;;;2.07;1.13;;;9.80;99.90;;;;;;5056326;28;20639;-84
2022/02/04 14:28:56;;;;;;;2.55;1.58;;;10.00;99.90;;;;;;5056028;28;20214;-84
2022/02/04 14:31:25;;;;;;;2.33;1.30;;;10.10;99.90;;;;;;5055368;28;20545;-83
2022/02/04 15:00:49;;;;;;;1.70;1.25;;;9.70;99.90;;;;;;5055304;28;20233;-81
2022/02/04 15:03:20;;;;;;;1.80;1.50;;;9.70;99.90;;;;;;5055164;28;20288;-82
2022/02/04 15:05:50;;;;;;;1.75;1.00;;;9.50;99.90;;;;;;5054178;28;20194;-82
2022/02/04 15:08:18;;;;;;;2.75;1.90;;;9.60;99.90;;;;;;5055411;28;20186;-81
2022/02/04 15:10:47;;;;;;;3.33;1.30;;;9.60;99.90;;;;;;5046909;28;20186;-81
2022/02/04 15:13:15;;;;;;;2.75;1.15;;;9.60;99.90;;;;;;5043110;28;20197;-80
2022/02/04 15:15:43;;;;;;;3.88;1.13;;;9.50;99.90;;;;;;5043680;28;20174;-81
2022/02/04 15:18:09;;;;;;;3.40;1.20;;;9.60;99.90;;;;;;5053285;28;20244;-81
2022/02/04 15:20:34;;;;;;;7.32;1.45;;;9.50;99.90;;;;;;5055177;28;20189;-79
2022/02/04 15:23:00;;;;;;;1.30;0.93;;;9.60;99.90;;;;;;5054351;28;20202;-79
2022/02/04 15:25:26;;;;;;;2.53;1.00;;;9.60;99.90;;;;;;5054853;28;20650;-79
2022/02/04 15:28:17;;;;;;;1.47;0.90;;;9.60;99.90;;;;;;5054752;28;20356;-79
2022/02/04 15:30:42;;;;;;;1.80;0.85;;;9.70;99.90;;;;;;5062113;28;20197;-78
2022/02/04 15:33:09;;;;;;;2.78;1.05;;;9.60;99.90;;;;;;5059854;28;20744;-79
2022/02/04 15:35:35;;;;;;;4.03;0.90;;;9.60;99.90;;;;;;5064208;28;20304;-81
2022/02/04 15:38:01;;;;;;;2.85;1.10;;;9.60;99.90;;;;;;5053418;28;20185;-78
2022/02/04 15:40:27;;;;;;;2.92;1.13;;;9.50;99.90;;;;;;5052743;28;20182;-78
2022/02/04 15:42:56;;;;;;;2.13;0.93;;;9.40;99.90;;;;;;5053899;28;20192;-78
2022/02/04 15:51:02;;;;;;;1.40;0.73;;;9.00;99.90;;;;;;5054466;28;20162;-80
2022/02/04 15:54:17;;;;;;;2.58;0.73;;;8.90;99.90;;;;;;5054473;28;20196;-80
2022/02/04 15:56:41;;;;;;;1.35;0.80;;;8.80;99.90;;;;;;5052078;28;20190;-78
2022/02/04 16:04:31;;;;;;;1.55;0.90;;;8.40;99.90;;;;;;5053598;28;20320;-76
2022/02/04 16:06:57;;;;;;;1.80;0.90;;;8.40;99.90;;;;;;5037705;28;20530;-77
2022/02/04 16:09:24;;;;;;;1.40;0.80;;;8.30;99.90;;;;;;5036293;28;20209;-77
2022/02/04 16:16:56;;;;;;;1.17;0.77;;;8.30;99.90;;;;;;5054460;28;20228;-80
2022/02/04 16:24:36;;;;;;;1.00;0.75;;;8.30;99.90;;;;;;5053008;28;20421;-76
2022/02/04 16:29:43;;;;;;;4.65;1.00;;;8.40;99.90;;;;;;5053951;28;20185;-76
2022/02/04 16:32:10;;;;;;;1.73;0.80;;;8.30;99.90;;;;;;5053465;28;20236;-78
2022/02/04 16:34:36;;;;;;;1.90;1.20;;;8.30;99.90;;;;;;5053729;28;20208;-78
2022/02/04 16:37:15;;;;;;;1.30;1.00;;;8.30;99.90;;;;;;5054080;28;20170;-80
2022/02/04 16:39:40;;;;;;;2.75;1.35;;;8.20;99.90;;;;;;5053750;28;20409;-80
2022/02/04 16:42:14;;;;;;;5.53;1.00;;;8.10;99.90;;;;;;5053541;28;20201;-78
2022/02/04 16:44:39;;;;;;;4.53;1.70;;;8.00;99.90;;;;;;5052650;28;20426;-81
2022/02/04 16:47:05;;;;;;;2.73;1.20;;;7.80;99.90;;;;;;5053612;28;20663;-81
2022/02/04 16:49:31;;;;;;;0.90;0.80;;;7.60;99.90;;;;;;5052711;28;20451;-80
2022/02/04 16:51:58;;;;;;;1.97;1.00;;;7.20;99.90;;;;;;5035434;28;21152;-81
2022/02/04 16:54:26;;;;;;;1.65;1.40;;;6.60;99.90;;;;;;5053553;28;20243;-82
2022/02/04 16:56:53;;;;;;;1.30;1.20;;;6.40;99.90;;;;;;5053530;28;20536;-79
2022/02/04 16:59:19;;;;;;;1.60;1.27;;;6.10;99.90;;;;;;5053342;28;20186;-78
2022/02/04 17:01:45;;;;;;;1.80;1.70;;;5.90;99.90;;;;;;5052790;28;20194;-79
2022/02/04 17:04:12;;;;;;;4.30;1.90;;;5.80;99.90;;;;;;5052135;28;20182;-80
2022/02/04 17:06:43;;;;;;;1.83;1.73;;;5.70;99.90;;;;;;5053349;28;20174;-80
2022/02/04 17:11:45;;;;;;;1.80;1.70;;;5.60;99.90;;;;;;5052841;28;20301;-79
2022/02/04 17:14:12;;;;;;;1.83;1.73;;;5.60;99.90;;;;;;5053244;28;20248;-83
2022/02/04 17:16:42;;;;;;;1.80;1.70;;;5.50;99.90;;;;;;5052281;28;20178;-82
2022/02/04 17:19:19;;;;;;;1.67;1.58;;;5.50;99.90;;;;;;5053429;28;20170;-80
2022/02/04 17:21:45;;;;;;;1.92;1.83;;;5.40;99.90;;;;;;5051658;28;20668;-83
2022/02/04 17:24:14;;;;;;;1.97;1.87;;;5.30;99.90;;;;;;5053122;28;20175;-81
2022/02/04 17:26:40;;;;;;;2.50;2.10;;;5.20;99.90;;;;;;5052010;28;20527;-80
2022/02/04 17:29:10;;;;;;;1.88;1.77;;;5.20;99.90;;;;;;5051914;28;20198;-82
2022/02/04 17:31:36;;;;;;;2.35;2.15;;;5.10;99.90;;;;;;5052758;28;20206;-80
2022/02/04 17:34:04;;;;;;;2.55;2.35;;;5.10;99.90;;;;;;5053190;28;20205;-81
2022/02/04 17:36:37;;;;;;;3.30;3.00;;;5.10;99.90;;;;;;5056778;28;20563;-81
2022/02/04 17:39:15;;;;;;;3.00;2.60;;;5.10;99.90;;;;;;5059569;28;20166;-84
2022/02/04 17:41:41;;;;;;;2.30;2.20;;;5.00;99.90;;;;;;5058952;28;20190;-82
2022/02/04 17:44:06;;;;;;;2.63;2.43;;;5.00;99.90;;;;;;5059512;28;20174;-81
2022/02/04 17:46:32;;;;;;;5.70;3.30;;;5.00;99.90;;;;;;5059401;28;20416;-81
2022/02/04 17:49:08;;;;;;;2.83;2.60;;;5.00;99.90;;;;;;5059545;28;20178;-79
2022/02/04 17:51:51;;;;;;;3.42;3.13;;;4.90;99.90;;;;;;5057892;28;20293;-78
2022/02/04 17:54:21;;;;;;;3.63;3.42;;;5.00;99.90;;;;;;5059354;28;20288;-79
2022/02/04 18:07:22;;;;;;;3.30;3.00;;;5.00;99.90;;;;;;5059666;28;20209;-76
2022/02/04 18:09:49;;;;;;;3.33;3.03;;;4.90;99.90;;;;;;5059223;28;20185;-76
2022/02/04 18:12:16;;;;;;;4.30;3.90;;;4.90;99.90;;;;;;5058707;28;20228;-76
2022/02/04 18:14:45;;;;;;;8.07;4.47;;;5.00;99.90;;;;;;5059069;28;20561;-77
2022/02/04 18:17:11;;;;;;;6.55;3.75;;;4.90;99.90;;;;;;5059730;28;20627;-76
2022/02/04 18:19:39;;;;;;;4.53;4.07;;;4.80;99.90;;;;;;5059430;28;20182;-77
2022/02/04 18:22:05;;;;;;;4.55;4.10;;;4.80;99.90;;;;;;5058801;28;20190;-80
2022/02/04 18:24:30;;;;;;;5.87;3.83;;;4.80;99.90;;;;;;5059115;28;20657;-79
2022/02/04 18:26:56;;;;;;;3.13;2.40;;;4.60;99.90;;;;;;5059098;28;20271;-80
2022/02/04 18:29:22;;;;;;;2.87;2.57;;;4.50;99.90;;;;;;5059048;28;20276;-77
2022/02/04 18:31:47;;;;;;;2.60;2.40;;;4.30;99.90;;;;;;5058642;28;20432;-79
2022/02/04 18:34:16;;;;;;;5.30;3.30;;;4.20;99.90;;;;;;5058900;28;20670;-80
2022/02/04 18:36:42;;;;;;;6.47;3.97;;;4.20;99.90;;;;;;5058638;28;20170;-79
2022/02/04 18:39:23;;;;;;;4.30;3.90;;;4.20;99.90;;;;;;5059068;28;20251;-78
2022/02/04 18:44:35;;;;;;;9.43;2.65;;;4.40;99.90;;;;;;5059196;28;20310;-77
2022/02/04 18:49:33;;;;;;;7.13;3.00;;;4.30;99.90;;;;;;5055618;28;20178;-79
2022/02/04 18:52:22;;;;;;;4.70;2.40;;;4.40;99.90;;;;;;5055485;28;20270;-77
2022/02/04 18:55:27;;;;;;;2.72;1.80;;;4.20;99.90;;;;;;5055616;28;20206;-77
2022/02/04 18:57:40;;;;;;;3.30;2.67;;;4.10;99.90;;;;;;5055561;28;20285;-77
2022/02/04 19:00:14;;;;;;;2.20;1.70;;;4.00;99.90;;;;;;5055743;28;20170;-78
2022/02/04 19:02:42;;;;;;;4.50;1.70;;;3.90;99.90;;;;;;5053825;28;20495;-78
2022/02/04 19:05:14;;;;;;;1.85;1.33;;;3.80;99.90;;;;;;5055431;28;20204;-77
2022/02/04 19:07:45;;;;;;;4.20;1.77;;;3.70;99.90;;;;;;5054264;28;20174;-78
2022/02/04 19:10:11;;;;;;;2.33;1.67;;;3.70;99.90;;;;;;5055466;28;20185;-78
2022/02/04 19:12:45;;;;;;;2.27;1.77;;;3.60;99.90;;;;;;5053635;28;20277;-77
2022/02/04 19:17:51;;;;;;;4.07;1.88;;;3.50;99.90;;;;;;5055646;28;20720;-77
2022/02/04 19:20:59;;;;;;;2.88;2.25;;;3.50;99.90;;;;;;5055301;28;20268;-79
2022/02/04 19:23:12;;;;;;;3.65;2.20;;;3.50;99.90;;;;;;5052871;28;20206;-78
2022/02/04 19:25:40;;;;;;;7.60;1.90;;;3.50;99.90;;;;;;5055093;28;20186;-77
2022/02/04 19:28:09;;;;;;;8.10;1.70;;;3.50;99.90;;;;;;5054897;28;20709;-78
2022/02/04 19:30:41;;;;;;;4.10;2.03;;;3.50;99.90;;;;;;5053803;28;20212;-77
2022/02/04 19:33:07;;;;;;;11.55;2.67;;;3.50;99.90;;;;;;5055267;28;20275;-77